createdAt,value
2023-08-23T00:03:23.346Z,9.13
2023-08-23T00:08:26.878Z,9.13
2023-08-23T00:13:31.348Z,9.03
2023-08-23T00:18:34.496Z,9.60
2023-08-23T00:23:38.669Z,9.70
2023-08-23T00:28:43.484Z,9.50
2023-08-23T00:33:46.625Z,10.00
2023-08-23T00:38:49.834Z,9.40
2023-08-23T00:43:54.428Z,10.47
2023-08-23T00:48:58.152Z,10.17
2023-08-23T00:54:01.739Z,10.43
2023-08-23T00:59:09.081Z,10.17
2023-08-23T01:04:12.580Z,10.37
2023-08-23T01:09:26.021Z,9.60
2023-08-23T01:14:38.034Z,10.50
2023-08-23T01:19:46.071Z,9.83
2023-08-23T01:24:51.993Z,10.07
2023-08-23T01:29:55.129Z,10.20
2023-08-23T01:35:04.182Z,10.73
2023-08-23T01:40:11.720Z,10.00
2023-08-23T01:45:14.984Z,10.10
2023-08-23T01:50:18.551Z,10.80
2023-08-23T01:55:22.986Z,10.53
2023-08-23T02:00:26.455Z,10.20
2023-08-23T02:05:31.708Z,10.80
2023-08-23T02:10:36.186Z,11.00
2023-08-23T02:15:39.335Z,10.83
2023-08-23T02:20:42.813Z,11.80
2023-08-23T02:25:47.231Z,10.90
2023-08-23T02:30:50.693Z,11.17
2023-08-23T02:35:53.774Z,11.00
2023-08-23T02:40:58.572Z,11.20
2023-08-23T02:46:02.007Z,11.27
2023-08-23T02:51:05.087Z,12.33
2023-08-23T02:56:09.494Z,11.30
2023-08-23T03:01:13.021Z,11.50
2023-08-23T03:06:16.416Z,12.73
2023-08-23T03:11:20.872Z,12.93
2023-08-23T03:16:24.259Z,13.50
2023-08-23T03:21:27.898Z,12.70
2023-08-23T03:26:32.724Z,13.83
2023-08-23T03:31:36.320Z,13.67
2023-08-23T03:36:40.018Z,13.73
2023-08-23T03:41:44.789Z,13.63
2023-08-23T03:46:47.965Z,15.10
2023-08-23T03:51:51.574Z,14.57
2023-08-23T03:56:56.429Z,15.47
2023-08-23T04:01:59.994Z,14.50
2023-08-23T04:07:03.081Z,13.53
2023-08-23T04:12:08.982Z,13.90
2023-08-23T04:17:12.463Z,14.20
2023-08-23T04:22:15.750Z,14.63
2023-08-23T04:27:20.510Z,16.67
2023-08-23T04:32:24.095Z,15.43
2023-08-23T04:37:27.256Z,14.87
2023-08-23T04:42:32.510Z,15.10
2023-08-23T04:47:35.658Z,14.50
2023-08-23T04:52:38.868Z,16.10
2023-08-23T04:57:43.392Z,16.63
2023-08-23T05:02:46.492Z,16.63
2023-08-23T05:07:50.630Z,17.13
2023-08-23T05:12:57.450Z,16.13
2023-08-23T05:18:00.963Z,15.80
2023-08-23T05:23:04.624Z,15.33
2023-08-23T05:28:09.167Z,15.33
2023-08-23T05:33:12.314Z,15.00
2023-08-23T05:38:16.000Z,14.90
2023-08-23T05:43:20.826Z,15.50
2023-08-23T05:48:24.248Z,15.70
2023-08-23T05:53:27.345Z,16.47
2023-08-23T05:58:31.773Z,15.47
2023-08-23T06:03:35.130Z,14.73
2023-08-23T06:08:38.265Z,15.43
2023-08-23T06:13:44.217Z,15.60
2023-08-23T06:18:47.508Z,15.50
2023-08-23T06:23:50.620Z,14.50
2023-08-23T06:28:55.958Z,14.80
2023-08-23T06:33:59.068Z,13.63
2023-08-23T06:39:02.772Z,14.63
2023-08-23T06:44:07.301Z,14.97
2023-08-23T06:49:11.396Z,12.50
2023-08-23T06:54:14.557Z,14.63
2023-08-23T06:59:19.089Z,16.07
2023-08-23T07:04:22.552Z,14.83
2023-08-23T07:09:25.726Z,14.17
2023-08-23T07:14:30.207Z,14.15
2023-08-23T07:19:33.671Z,13.23
2023-08-23T07:24:36.904Z,13.50
2023-08-23T07:29:41.395Z,13.30
2023-08-23T07:34:44.708Z,10.15
2023-08-23T07:39:48.172Z,10.80
2023-08-23T07:44:52.822Z,9.55
2023-08-23T07:49:56.149Z,10.55
2023-08-23T07:54:59.757Z,10.05
2023-08-23T08:00:05.314Z,10.73
2023-08-23T08:05:09.900Z,9.00
2023-08-23T08:10:13.915Z,9.55
2023-08-23T08:15:18.558Z,9.32
2023-08-23T08:20:22.397Z,9.27
2023-08-23T08:25:25.543Z,7.85
2023-08-23T08:30:29.961Z,9.70
2023-08-23T08:35:33.095Z,7.90
2023-08-23T08:40:37.904Z,8.05
2023-08-23T08:45:42.372Z,7.68
2023-08-23T08:50:45.818Z,7.60
2023-08-23T08:55:50.445Z,7.50
2023-08-23T09:00:56.466Z,7.53
2023-08-23T09:05:59.621Z,8.18
2023-08-23T09:11:02.731Z,7.10
2023-08-23T09:16:07.860Z,9.18
2023-08-23T09:21:13.117Z,6.60
2023-08-23T09:26:17.044Z,6.47
2023-08-23T09:31:21.734Z,5.68
2023-08-23T09:36:28.023Z,5.78
2023-08-23T09:41:32.121Z,5.95
2023-08-23T09:46:38.346Z,5.97
2023-08-23T09:51:42.103Z,4.85
2023-08-23T09:56:46.254Z,5.10
2023-08-23T10:01:51.901Z,5.53
2023-08-23T10:06:55.133Z,4.00
2023-08-23T10:11:58.709Z,4.45
2023-08-23T10:17:04.865Z,4.63
2023-08-23T10:22:08.560Z,4.57
2023-08-23T10:27:12.141Z,4.68
2023-08-23T10:32:16.576Z,4.25
2023-08-23T10:37:21.582Z,4.32
2023-08-23T10:42:26.902Z,4.60
2023-08-23T10:47:34.296Z,3.28
2023-08-23T10:52:37.826Z,3.33
2023-08-23T10:57:41.512Z,2.80
2023-08-23T11:02:45.994Z,2.60
2023-08-23T11:07:49.770Z,2.75
2023-08-23T11:12:53.543Z,2.88
2023-08-23T11:17:59.141Z,3.30
2023-08-23T11:23:02.975Z,3.38
2023-08-23T11:28:08.060Z,3.22
2023-08-23T11:33:13.017Z,3.10
2023-08-23T11:38:16.113Z,3.25
2023-08-23T11:43:23.156Z,3.58
2023-08-23T11:48:28.046Z,3.35
2023-08-23T11:53:31.238Z,3.05
2023-08-23T11:58:34.668Z,3.00
2023-08-23T12:03:39.179Z,3.15
2023-08-23T12:08:42.305Z,2.72
2023-08-23T12:19:17.843Z,3.00
2023-08-23T12:24:31.084Z,2.80
2023-08-23T12:29:34.225Z,3.13
2023-08-23T12:34:38.646Z,2.60
2023-08-23T12:39:42.157Z,2.60
2023-08-23T12:44:45.704Z,2.45
2023-08-23T12:49:50.584Z,2.65
2023-08-23T12:54:53.719Z,2.58
2023-08-23T12:59:57.039Z,2.40
2023-08-23T13:05:01.914Z,1.80
2023-08-23T13:10:05.623Z,4.00
2023-08-23T13:15:10.619Z,2.38
2023-08-23T13:20:15.596Z,2.00
2023-08-23T13:25:19.042Z,2.20
2023-08-23T13:30:22.365Z,2.13
2023-08-23T13:35:26.819Z,1.70
2023-08-23T13:40:29.928Z,1.83
2023-08-23T13:45:33.559Z,1.83
2023-08-23T13:50:38.138Z,1.85
2023-08-23T13:55:41.578Z,1.60
2023-08-23T14:00:46.414Z,1.77
2023-08-23T14:05:58.968Z,2.10
2023-08-23T14:11:02.088Z,1.95
2023-08-23T14:16:05.989Z,1.85
2023-08-23T14:21:10.426Z,1.83
2023-08-23T14:26:13.527Z,1.70
2023-08-23T14:31:16.726Z,1.48
2023-08-23T14:36:21.330Z,1.90
2023-08-23T14:41:25.411Z,2.10
2023-08-23T14:46:28.937Z,2.00
2023-08-23T14:51:33.937Z,1.73
2023-08-23T14:56:37.281Z,1.98
2023-08-23T15:01:40.876Z,2.00
2023-08-23T15:06:45.735Z,2.30
2023-08-23T15:11:48.839Z,2.10
2023-08-23T15:16:51.932Z,2.08
2023-08-23T15:21:56.752Z,2.40
2023-08-23T15:27:00.677Z,2.10
2023-08-23T15:32:04.336Z,2.20
2023-08-23T15:37:08.808Z,2.53
2023-08-23T15:42:12.742Z,2.20
2023-08-23T15:47:17.609Z,2.00
2023-08-23T15:52:22.446Z,2.22
2023-08-23T15:57:25.543Z,2.20
2023-08-23T16:02:28.659Z,2.13
2023-08-23T16:07:33.182Z,2.10
2023-08-23T16:12:36.304Z,2.50
2023-08-23T16:17:40.414Z,2.40
2023-08-23T16:22:45.531Z,2.20
2023-08-23T16:27:48.916Z,2.13
2023-08-23T16:32:52.605Z,2.08
2023-08-23T16:37:57.304Z,2.00
2023-08-23T16:43:01.578Z,1.88
2023-08-23T16:48:05.389Z,1.85
2023-08-23T16:53:10.038Z,1.98
2023-08-23T16:58:13.162Z,2.17
2023-08-23T17:03:16.266Z,1.85
2023-08-23T17:08:20.740Z,2.00
2023-08-23T17:13:26.001Z,1.90
2023-08-23T17:18:29.562Z,2.10
2023-08-23T17:23:34.037Z,2.55
2023-08-23T17:28:39.411Z,2.33
2023-08-23T17:33:42.733Z,2.30
2023-08-23T17:38:47.676Z,2.28
2023-08-23T17:43:50.763Z,2.38
2023-08-23T17:48:54.116Z,2.20
2023-08-23T17:53:58.735Z,2.00
2023-08-23T17:59:02.195Z,2.60
2023-08-23T18:04:05.924Z,2.08
2023-08-23T18:09:10.404Z,2.40
2023-08-23T18:14:13.672Z,2.28
2023-08-23T18:19:17.753Z,2.45
2023-08-23T18:24:22.532Z,2.60
2023-08-23T18:29:25.797Z,2.60
2023-08-23T18:34:29.116Z,2.80
2023-08-23T18:39:33.592Z,2.90
2023-08-23T18:44:36.738Z,2.53
2023-08-23T18:49:42.014Z,2.50
2023-08-23T18:54:46.481Z,2.60
2023-08-23T18:59:50.339Z,2.80
2023-08-23T19:04:53.627Z,2.97
2023-08-23T19:10:02.206Z,2.70
2023-08-23T19:15:06.700Z,3.27
2023-08-23T19:20:10.206Z,2.78
2023-08-23T19:25:14.772Z,3.00
2023-08-23T19:30:18.715Z,2.80
2023-08-23T19:35:23.379Z,2.93
2023-08-23T19:40:27.849Z,2.73
2023-08-23T19:45:31.290Z,2.80
2023-08-23T19:50:34.834Z,2.80
2023-08-23T19:55:39.295Z,2.60
2023-08-23T20:00:42.367Z,2.40
2023-08-23T20:05:46.096Z,2.60
2023-08-23T20:10:52.516Z,2.40
2023-08-23T20:15:56.611Z,2.30
2023-08-23T20:21:00.090Z,2.20
2023-08-23T20:26:04.619Z,2.50
2023-08-23T20:31:07.904Z,2.50
2023-08-23T20:36:11.288Z,2.30
2023-08-23T20:41:16.211Z,2.43
2023-08-23T20:46:19.386Z,2.70
2023-08-23T20:51:22.530Z,2.43
2023-08-23T20:56:27.096Z,2.67
2023-08-23T21:01:30.235Z,2.40
2023-08-23T21:06:33.431Z,2.30
2023-08-23T21:11:37.911Z,2.90
2023-08-23T21:16:41.110Z,2.60
2023-08-23T21:21:44.316Z,2.67
2023-08-23T21:26:48.832Z,3.17
2023-08-23T21:31:51.926Z,2.87
2023-08-23T21:36:55.073Z,2.80
2023-08-23T21:41:59.598Z,2.73
2023-08-23T21:47:03.153Z,2.40
2023-08-23T21:52:07.050Z,2.60
2023-08-23T21:57:12.078Z,2.90
2023-08-23T22:02:15.835Z,2.90
2023-08-23T22:07:19.402Z,2.90
2023-08-23T22:12:23.883Z,3.17
2023-08-23T22:17:27.144Z,2.70
2023-08-23T22:22:30.730Z,2.50
2023-08-23T22:27:35.184Z,2.80
2023-08-23T22:32:38.340Z,3.07
2023-08-23T22:37:41.474Z,3.10
2023-08-23T22:42:46.107Z,2.90
2023-08-23T22:47:49.506Z,3.10
2023-08-23T22:52:53.350Z,3.33
2023-08-23T22:57:58.036Z,3.30
2023-08-23T23:03:01.777Z,3.20
2023-08-23T23:08:06.976Z,3.13
2023-08-23T23:13:11.827Z,3.40
2023-08-23T23:18:16.197Z,3.50
2023-08-23T23:23:19.634Z,3.27
2023-08-23T23:28:24.408Z,3.20
2023-08-23T23:33:28.726Z,3.30
2023-08-23T23:38:32.337Z,3.70
2023-08-23T23:43:37.150Z,3.43
2023-08-23T23:48:40.620Z,3.33
2023-08-23T23:53:44.225Z,3.43
2023-08-23T23:58:48.704Z,3.50
